createdAt,value
2023-11-17T00:02:07.956Z,98322.50
2023-11-17T00:05:11.273Z,98348.97
2023-11-17T00:08:14.395Z,98358.06
2023-11-17T00:11:17.426Z,98367.75
2023-11-17T00:14:21.902Z,98347.44
2023-11-17T00:17:24.937Z,98346.59
2023-11-17T00:20:28.034Z,98353.91
2023-11-17T00:23:31.165Z,98351.25
2023-11-17T00:26:34.813Z,98350.91
2023-11-17T00:29:40.344Z,98359.16
2023-11-17T00:32:43.671Z,98336.09
2023-11-17T00:35:48.315Z,98327.06
2023-11-17T00:38:51.999Z,98311.44
2023-11-17T00:41:56.894Z,98317.59
2023-11-17T00:45:01.493Z,98324.97
2023-11-17T00:48:04.959Z,98319.66
2023-11-17T00:51:08.058Z,98311.47
2023-11-17T00:54:11.649Z,98323.97
2023-11-17T00:57:14.689Z,98300.91
2023-11-17T01:00:19.666Z,98300.22
2023-11-17T01:03:22.708Z,98298.22
2023-11-17T01:06:26.699Z,98301.44
2023-11-17T01:09:29.671Z,98294.00
2023-11-17T01:12:32.745Z,98288.94
2023-11-17T01:15:37.948Z,98278.75
2023-11-17T01:18:40.978Z,98271.38
2023-11-17T01:21:44.045Z,98258.56
2023-11-17T01:24:47.053Z,98250.00
2023-11-17T01:27:52.307Z,98246.56
2023-11-17T01:30:56.891Z,98249.56
2023-11-17T01:34:00.003Z,98242.16
2023-11-17T01:37:03.062Z,98232.06
2023-11-17T01:40:07.314Z,98230.53
2023-11-17T01:43:12.981Z,98213.38
2023-11-17T01:46:17.853Z,98218.00
2023-11-17T01:49:23.404Z,98218.78
2023-11-17T01:52:26.506Z,98208.34
2023-11-17T01:55:29.866Z,98203.94
2023-11-17T01:58:34.765Z,98196.53
2023-11-17T02:01:39.387Z,98183.94
2023-11-17T02:04:42.532Z,98166.28
2023-11-17T02:07:55.976Z,98167.63
2023-11-17T02:11:04.504Z,98155.16
2023-11-17T02:14:10.613Z,98150.94
2023-11-17T02:17:17.037Z,98120.19
2023-11-17T02:20:21.777Z,98141.31
2023-11-17T02:23:27.812Z,98124.91
2023-11-17T02:26:36.670Z,98112.00
2023-11-17T02:29:46.064Z,98095.22
2023-11-17T02:32:49.994Z,98103.75
2023-11-17T02:35:56.527Z,98089.31
2023-11-17T02:39:07.232Z,98082.81
2023-11-17T02:42:12.970Z,98084.63
2023-11-17T02:45:21.074Z,98089.41
2023-11-17T02:48:29.945Z,98067.78
2023-11-17T02:51:44.866Z,98088.63
2023-11-17T02:54:48.397Z,98098.69
2023-11-17T02:57:55.749Z,98107.00
2023-11-17T03:01:00.372Z,98117.97
2023-11-17T03:04:03.592Z,98109.81
2023-11-17T03:07:06.738Z,98109.41
2023-11-17T03:10:10.899Z,98109.97
2023-11-17T03:13:17.546Z,98126.19
2023-11-17T03:16:26.038Z,98121.16
2023-11-17T03:19:29.767Z,98127.50
2023-11-17T03:22:33.608Z,98118.88
2023-11-17T03:25:40.741Z,98132.47
2023-11-17T03:28:44.200Z,98126.75
2023-11-17T03:31:51.300Z,98128.69
2023-11-17T03:34:54.710Z,98125.19
2023-11-17T03:37:57.892Z,98145.06
2023-11-17T03:41:01.381Z,98133.00
2023-11-17T03:44:04.488Z,98137.28
2023-11-17T03:47:09.156Z,98134.16
2023-11-17T03:50:15.177Z,98126.06
2023-11-17T03:53:18.495Z,98116.66
2023-11-17T03:56:21.873Z,98119.34
2023-11-17T03:59:26.425Z,98109.16
2023-11-17T04:02:30.994Z,98099.03
2023-11-17T04:05:34.919Z,98091.59
2023-11-17T04:08:37.951Z,98079.94
2023-11-17T04:11:41.791Z,98089.13
2023-11-17T04:14:47.388Z,98107.91
2023-11-17T04:17:52.139Z,98098.31
2023-11-17T04:20:55.578Z,98103.34
2023-11-17T04:23:58.627Z,98095.16
2023-11-17T04:27:01.883Z,98100.94
2023-11-17T04:30:05.420Z,98101.00
2023-11-17T04:33:10.628Z,98104.50
2023-11-17T04:36:15.734Z,98097.16
2023-11-17T04:39:19.661Z,98095.63
2023-11-17T04:42:22.644Z,98102.22
2023-11-17T04:45:26.849Z,98099.84
2023-11-17T04:48:31.363Z,98102.94
2023-11-17T04:51:34.545Z,98102.25
2023-11-17T04:54:37.664Z,98086.25
2023-11-17T04:57:40.809Z,98093.63
2023-11-17T05:00:44.010Z,98083.91
2023-11-17T05:03:48.484Z,98073.41
2023-11-17T05:06:51.541Z,98071.09
2023-11-17T05:09:55.170Z,98073.00
2023-11-17T05:12:58.184Z,98061.78
2023-11-17T05:16:04.805Z,98070.72
2023-11-17T05:19:09.652Z,98041.16
2023-11-17T05:22:13.912Z,98044.66
2023-11-17T05:25:18.082Z,98049.72
2023-11-17T05:28:21.225Z,98040.03
2023-11-17T05:31:27.530Z,98039.63
2023-11-17T05:34:34.860Z,98034.88
2023-11-17T05:37:37.969Z,98026.38
2023-11-17T05:40:41.806Z,98040.75
2023-11-17T05:43:47.324Z,98031.47
2023-11-17T05:46:50.520Z,98036.88
2023-11-17T05:49:56.811Z,98023.69
2023-11-17T05:53:00.052Z,98029.50
2023-11-17T05:56:03.403Z,98037.34
2023-11-17T05:59:10.890Z,98039.19
2023-11-17T06:02:15.956Z,98038.94
2023-11-17T06:05:20.792Z,98031.53
2023-11-17T06:08:23.855Z,98042.38
2023-11-17T06:11:27.266Z,98051.72
2023-11-17T06:14:31.497Z,98036.19
2023-11-17T06:17:34.677Z,98040.84
2023-11-17T06:20:40.063Z,98047.09
2023-11-17T06:23:43.316Z,98062.34
2023-11-17T06:26:46.827Z,98049.34
2023-11-17T06:29:52.638Z,98064.22
2023-11-17T06:32:58.586Z,98045.84
2023-11-17T06:36:05.185Z,98050.66
2023-11-17T06:39:15.640Z,98068.94
2023-11-17T06:42:18.972Z,98094.63
2023-11-17T06:45:23.407Z,98096.19
2023-11-17T06:48:30.472Z,98097.50
2023-11-17T06:51:36.314Z,98062.78
2023-11-17T06:54:39.733Z,98090.34
2023-11-17T06:57:57.107Z,98100.59
2023-11-17T07:01:01.828Z,98096.28
2023-11-17T07:04:07.150Z,98109.09
2023-11-17T07:07:18.821Z,98116.97
2023-11-17T07:10:26.253Z,98128.94
2023-11-17T07:13:30.372Z,98137.91
2023-11-17T07:16:43.414Z,98166.09
2023-11-17T07:19:48.772Z,98182.34
2023-11-17T07:22:53.640Z,98213.25
2023-11-17T07:25:56.582Z,98213.25
2023-11-17T07:28:59.535Z,98236.28
2023-11-17T07:32:02.570Z,98253.09
2023-11-17T07:35:06.825Z,98300.00
2023-11-17T07:38:11.208Z,98278.50
2023-11-17T07:41:14.318Z,98329.19
2023-11-17T07:44:17.463Z,98322.25
2023-11-17T07:47:23.289Z,98326.53
2023-11-17T07:50:26.282Z,98367.50
2023-11-17T07:53:31.235Z,98369.78
2023-11-17T07:56:34.211Z,98387.34
2023-11-17T07:59:37.244Z,98391.22
2023-11-17T08:02:40.198Z,98438.84
2023-11-17T08:05:43.339Z,98447.84
2023-11-17T08:08:48.652Z,98461.09
2023-11-17T08:11:52.121Z,98453.28
2023-11-17T08:14:57.720Z,98466.56
2023-11-17T08:18:00.736Z,98560.63
2023-11-17T08:21:04.592Z,98523.16
2023-11-17T08:24:10.006Z,98552.00
2023-11-17T08:27:15.391Z,98567.59
2023-11-17T08:30:19.219Z,98596.09
2023-11-17T08:33:22.357Z,98619.50
2023-11-17T08:36:29.264Z,98671.03
2023-11-17T08:39:35.333Z,98648.78
2023-11-17T08:42:38.690Z,98640.56
2023-11-17T08:45:41.949Z,98695.25
2023-11-17T08:48:44.989Z,98698.38
2023-11-17T08:51:48.661Z,98726.47
2023-11-17T08:54:52.908Z,98709.34
2023-11-17T08:57:56.262Z,98727.69
2023-11-17T09:01:00.121Z,98733.13
2023-11-17T09:04:03.208Z,98740.56
2023-11-17T09:07:06.213Z,98729.66
2023-11-17T09:10:12.878Z,98779.19
2023-11-17T09:13:15.906Z,98798.69
2023-11-17T09:16:19.088Z,98797.94
2023-11-17T09:19:22.606Z,98847.88
2023-11-17T09:22:25.579Z,98858.06
2023-11-17T09:25:32.015Z,98870.16
2023-11-17T09:28:37.235Z,98867.41
2023-11-17T09:31:40.164Z,98890.44
2023-11-17T09:34:43.158Z,98910.38
2023-11-17T09:37:51.209Z,98897.88
2023-11-17T09:40:56.879Z,98877.56
2023-11-17T09:44:00.125Z,98887.69
2023-11-17T09:47:09.898Z,98893.16
2023-11-17T09:50:13.365Z,98925.63
2023-11-17T09:53:16.990Z,98924.81
2023-11-17T09:56:21.577Z,98987.69
2023-11-17T09:59:24.639Z,98952.53
2023-11-17T10:02:29.359Z,99006.44
2023-11-17T10:05:33.856Z,98979.50
2023-11-17T10:08:36.733Z,99002.16
2023-11-17T10:11:43.109Z,99011.13
2023-11-17T10:14:46.534Z,99016.97
2023-11-17T10:17:50.789Z,99072.44
2023-11-17T10:20:54.442Z,99049.41
2023-11-17T10:23:57.723Z,99088.47
2023-11-17T10:27:02.446Z,99201.69
2023-11-17T10:30:06.070Z,99210.72
2023-11-17T10:33:17.130Z,99264.59
2023-11-17T10:36:21.529Z,99275.13
2023-11-17T10:39:25.132Z,99275.53
2023-11-17T10:42:33.436Z,99269.66
2023-11-17T10:45:37.948Z,99369.25
2023-11-17T10:48:43.509Z,99361.06
2023-11-17T10:51:48.224Z,99372.00
2023-11-17T10:54:51.111Z,99367.34
2023-11-17T10:58:08.223Z,99350.16
2023-11-17T11:01:16.700Z,99366.56
2023-11-17T11:04:26.874Z,99377.09
2023-11-17T11:07:30.743Z,99360.72
2023-11-17T11:10:35.900Z,99366.59
2023-11-17T11:13:40.308Z,99356.41
2023-11-17T11:16:47.660Z,99376.34
2023-11-17T11:20:01.844Z,99385.00
2023-11-17T11:23:16.581Z,99340.19
2023-11-17T11:26:19.948Z,99409.31
2023-11-17T11:29:25.462Z,99332.72
2023-11-17T11:32:28.459Z,99353.53
2023-11-17T11:35:31.358Z,99371.47
2023-11-17T11:38:35.397Z,99392.94
2023-11-17T11:41:38.371Z,99412.53
2023-11-17T11:44:43.783Z,99402.06
2023-11-17T11:47:50.873Z,99428.66
2023-11-17T11:50:56.345Z,99434.13
2023-11-17T11:54:01.014Z,99452.47
2023-11-17T11:57:04.846Z,99477.44
2023-11-17T12:00:15.529Z,99500.81
2023-11-17T12:03:19.325Z,99499.63
2023-11-17T12:06:23.648Z,99553.25
2023-11-17T12:09:26.639Z,99513.03
2023-11-17T12:12:29.844Z,99538.41
2023-11-17T12:15:34.096Z,99529.50
2023-11-17T12:18:37.188Z,99576.72
2023-11-17T12:21:44.148Z,99554.47
2023-11-17T12:24:49.800Z,99544.25
2023-11-17T12:27:53.833Z,99574.34
2023-11-17T12:30:58.278Z,99533.38
2023-11-17T12:34:01.677Z,99531.81
2023-11-17T12:37:04.900Z,99521.63
2023-11-17T12:40:16.004Z,99518.47
2023-11-17T12:43:19.614Z,99539.97
2023-11-17T12:46:26.299Z,99538.09
2023-11-17T12:49:29.430Z,99578.69
2023-11-17T12:52:34.690Z,99604.06
2023-11-17T12:55:47.334Z,99594.41
2023-11-17T12:58:50.822Z,99622.16
2023-11-17T13:01:55.461Z,99606.03
2023-11-17T13:04:58.541Z,99564.59
2023-11-17T13:08:01.869Z,99623.50
2023-11-17T13:11:07.642Z,99594.16
2023-11-17T13:14:14.680Z,99628.66
2023-11-17T13:17:21.483Z,99589.84
2023-11-17T13:20:25.215Z,99595.34
2023-11-17T13:23:29.014Z,99619.97
2023-11-17T13:26:32.852Z,99596.81
2023-11-17T13:29:41.142Z,99616.19
2023-11-17T13:32:58.290Z,99581.28
2023-11-17T13:36:01.640Z,99603.50
2023-11-17T13:39:17.065Z,99595.91
2023-11-17T13:42:20.470Z,99638.81
2023-11-17T13:45:23.764Z,99597.59
2023-11-17T13:48:28.309Z,99605.38
2023-11-17T13:51:35.531Z,99587.78
2023-11-17T13:54:38.967Z,99608.75
2023-11-17T13:57:42.126Z,99632.97
2023-11-17T14:00:47.533Z,99612.13
2023-11-17T14:03:52.247Z,99637.94
2023-11-17T14:06:56.538Z,99654.66
2023-11-17T14:09:59.540Z,99616.00
2023-11-17T14:13:03.250Z,99639.75
2023-11-17T14:16:10.281Z,99634.59
2023-11-17T14:19:15.084Z,99628.81
2023-11-17T14:22:25.813Z,99653.78
2023-11-17T14:25:28.798Z,99651.00
2023-11-17T14:28:31.725Z,99677.56
2023-11-17T14:31:34.789Z,99662.41
2023-11-17T14:34:39.111Z,99682.66
2023-11-17T14:37:41.965Z,99662.75
2023-11-17T14:40:46.128Z,99702.97
2023-11-17T14:43:50.810Z,99681.44
2023-11-17T14:46:53.891Z,99702.50
2023-11-17T14:49:58.770Z,99689.88
2023-11-17T14:53:01.690Z,99677.38
2023-11-17T14:56:07.288Z,99709.41
2023-11-17T14:59:10.998Z,99701.50
2023-11-17T15:02:13.979Z,99767.75
2023-11-17T15:05:21.623Z,99710.69
2023-11-17T15:08:27.822Z,99734.88
2023-11-17T15:11:30.845Z,99799.63
2023-11-17T15:14:33.794Z,99739.41
2023-11-17T15:17:37.869Z,99730.16
2023-11-17T15:20:42.406Z,99735.03
2023-11-17T15:23:45.362Z,99788.91
2023-11-17T15:26:49.802Z,99795.91
2023-11-17T15:29:52.700Z,99747.56
2023-11-17T15:32:57.108Z,99806.84
2023-11-17T15:36:01.835Z,99785.78
2023-11-17T15:39:15.398Z,99802.97
2023-11-17T15:42:18.374Z,99791.63
2023-11-17T15:45:24.758Z,99786.88
2023-11-17T15:48:27.934Z,99789.13
2023-11-17T15:51:32.622Z,99787.94
2023-11-17T15:54:35.471Z,99773.50
2023-11-17T15:57:38.382Z,99818.50
2023-11-17T16:00:41.274Z,99788.47
2023-11-17T16:03:45.065Z,99790.69
2023-11-17T16:06:50.003Z,99789.31
2023-11-17T16:09:55.116Z,99794.47
2023-11-17T16:12:59.340Z,99890.94
2023-11-17T16:16:07.516Z,99830.13
2023-11-17T16:19:10.810Z,99833.22
2023-11-17T16:22:15.247Z,99851.72
2023-11-17T16:25:18.966Z,99846.25
2023-11-17T16:28:21.936Z,99879.09
2023-11-17T16:31:25.214Z,99837.75
2023-11-17T16:34:28.566Z,99862.88
2023-11-17T16:37:38.339Z,99832.09
2023-11-17T16:40:41.347Z,99826.19
2023-11-17T16:43:44.465Z,99847.66
2023-11-17T16:46:51.421Z,99822.19
2023-11-17T16:49:54.731Z,99842.03
2023-11-17T16:52:59.343Z,99875.31
2023-11-17T16:56:02.266Z,99832.69
2023-11-17T16:59:05.221Z,99836.88
2023-11-17T17:02:15.207Z,99850.25
2023-11-17T17:05:18.975Z,99847.72
2023-11-17T17:08:27.690Z,99840.34
2023-11-17T17:11:31.660Z,99845.00
2023-11-17T17:14:34.675Z,99836.72
2023-11-17T17:17:38.589Z,99867.94
2023-11-17T17:20:42.323Z,99854.59
2023-11-17T17:23:49.348Z,99887.25
2023-11-17T17:26:54.219Z,99872.41
2023-11-17T17:29:57.390Z,99862.97
2023-11-17T17:33:04.595Z,99836.78
2023-11-17T17:36:08.321Z,99849.56
2023-11-17T17:39:17.712Z,99849.47
2023-11-17T17:42:21.773Z,99857.47
2023-11-17T17:45:28.135Z,99853.59
2023-11-17T17:48:31.189Z,99869.50
2023-11-17T17:51:35.616Z,99837.94
2023-11-17T17:54:39.898Z,99848.03
2023-11-17T17:57:43.980Z,99859.31
2023-11-17T18:00:47.314Z,99845.22
2023-11-17T18:03:50.343Z,99880.78
2023-11-17T18:06:53.762Z,99840.91
2023-11-17T18:09:58.391Z,99862.41
2023-11-17T18:13:02.174Z,99858.81
2023-11-17T18:16:06.273Z,99861.19
2023-11-17T18:19:09.626Z,99867.50
2023-11-17T18:22:12.911Z,99884.31
2023-11-17T18:25:18.704Z,99883.88
2023-11-17T18:28:22.150Z,99897.88
2023-11-17T18:31:25.126Z,99906.22
2023-11-17T18:34:28.144Z,99910.16
2023-11-17T18:37:32.426Z,99875.41
2023-11-17T18:40:37.469Z,99904.38
2023-11-17T18:43:40.451Z,99922.69
2023-11-17T18:46:43.460Z,99932.94
2023-11-17T18:49:46.777Z,99951.94
2023-11-17T18:52:50.782Z,99968.72
2023-11-17T18:55:58.666Z,99953.09
2023-11-17T18:59:02.719Z,99944.50
2023-11-17T19:02:06.234Z,99962.88
2023-11-17T19:05:11.384Z,100002.22
2023-11-17T19:08:14.821Z,100000.22
2023-11-17T19:11:21.294Z,99973.63
2023-11-17T19:14:27.537Z,99958.06
2023-11-17T19:17:31.150Z,99952.97
2023-11-17T19:20:34.199Z,99983.84
2023-11-17T19:23:38.207Z,99970.91
2023-11-17T19:27:06.814Z,99961.16
2023-11-17T19:30:16.396Z,99963.44
2023-11-17T19:33:22.081Z,99974.69
2023-11-17T19:36:25.834Z,99960.72
2023-11-17T19:39:30.159Z,99992.75
2023-11-17T19:42:35.324Z,100005.94
2023-11-17T19:45:38.822Z,100009.13
2023-11-17T19:48:42.311Z,99992.75
2023-11-17T19:51:48.376Z,100022.50
2023-11-17T19:54:51.441Z,100007.28
2023-11-17T19:57:56.353Z,100010.84
2023-11-17T20:01:00.078Z,99981.56
2023-11-17T20:04:08.307Z,100028.75
2023-11-17T20:07:15.012Z,99979.19
2023-11-17T20:10:18.552Z,99998.19
2023-11-17T20:13:24.328Z,99998.13
2023-11-17T20:16:27.887Z,99987.09
2023-11-17T20:19:31.004Z,100015.81
2023-11-17T20:22:34.049Z,99994.72
2023-11-17T20:25:37.481Z,100002.81
2023-11-17T20:28:42.272Z,99986.00
2023-11-17T20:31:45.258Z,99995.69
2023-11-17T20:34:48.803Z,100019.44
2023-11-17T20:37:52.191Z,99988.72
2023-11-17T20:40:55.169Z,100025.75
2023-11-17T20:44:00.036Z,100014.25
2023-11-17T20:47:03.541Z,100016.88
2023-11-17T20:50:12.134Z,100043.72
2023-11-17T20:53:15.447Z,100014.34
2023-11-17T20:56:19.302Z,99999.72
2023-11-17T20:59:24.104Z,100006.63
2023-11-17T21:02:27.180Z,99984.63
2023-11-17T21:05:30.336Z,99996.19
2023-11-17T21:08:33.216Z,99992.34
2023-11-17T21:11:36.595Z,100006.69
2023-11-17T21:14:43.154Z,99995.34
2023-11-17T21:17:47.897Z,100020.69
2023-11-17T21:20:50.935Z,100022.28
2023-11-17T21:23:54.824Z,100025.00
2023-11-17T21:26:57.724Z,100040.91
2023-11-17T21:30:02.109Z,100055.06
2023-11-17T21:33:06.075Z,100063.84
2023-11-17T21:36:10.038Z,100059.81
2023-11-17T21:39:18.339Z,100068.53
2023-11-17T21:42:24.829Z,100050.81
2023-11-17T21:45:29.669Z,100054.19
2023-11-17T21:48:32.530Z,100067.81
2023-11-17T21:51:40.093Z,100057.88
2023-11-17T21:54:43.219Z,100094.34
2023-11-17T21:57:47.042Z,100090.34
2023-11-17T22:00:51.326Z,100122.13
2023-11-17T22:03:54.219Z,100092.75
2023-11-17T22:07:00.220Z,100082.25
2023-11-17T22:10:06.033Z,100084.72
2023-11-17T22:13:08.920Z,100094.34
2023-11-17T22:16:13.142Z,100121.69
2023-11-17T22:19:16.209Z,100090.53
2023-11-17T22:22:19.203Z,100087.72
2023-11-17T22:25:23.537Z,100121.00
2023-11-17T22:28:26.984Z,100102.22
2023-11-17T22:31:32.457Z,100114.38
2023-11-17T22:34:35.472Z,100124.06
2023-11-17T22:37:38.579Z,100148.81
2023-11-17T22:40:41.498Z,100138.13
2023-11-17T22:43:44.423Z,100146.41
2023-11-17T22:46:49.074Z,100165.44
2023-11-17T22:49:52.045Z,100168.16
2023-11-17T22:52:55.626Z,100137.88
2023-11-17T22:55:59.662Z,100127.06
2023-11-17T22:59:03.002Z,100162.44
2023-11-17T23:02:09.508Z,100151.41
2023-11-17T23:05:16.460Z,100149.72
2023-11-17T23:08:19.393Z,100155.63
2023-11-17T23:11:22.318Z,100181.16
2023-11-17T23:14:26.627Z,100167.16
2023-11-17T23:17:30.998Z,100168.53
2023-11-17T23:20:34.656Z,100187.63
2023-11-17T23:23:37.538Z,100139.16
2023-11-17T23:26:41.225Z,100157.16
2023-11-17T23:29:45.244Z,100137.56
2023-11-17T23:32:49.658Z,100142.00
2023-11-17T23:35:53.985Z,100140.53
2023-11-17T23:38:58.388Z,100151.09
2023-11-17T23:42:01.258Z,100149.16
2023-11-17T23:45:06.842Z,100166.34
2023-11-17T23:48:11.227Z,100142.34
2023-11-17T23:51:14.607Z,100161.53
2023-11-17T23:54:17.522Z,100139.28
2023-11-17T23:57:20.393Z,100148.25
